sensor_id;sensor_type;location;lat;lon;timestamp;P1;durP1;ratioP1;P2;durP2;ratioP2
53652;SDS011;39553;52.954;5.932;2023-02-10T00:00:25;26.67;;;7.05;;
53652;SDS011;39553;52.954;5.932;2023-02-10T00:02:51;31.65;;;7.68;;
53652;SDS011;39553;52.954;5.932;2023-02-10T00:05:16;30.08;;;8.60;;
53652;SDS011;39553;52.954;5.932;2023-02-10T00:07:42;23.55;;;7.60;;
53652;SDS011;39553;52.954;5.932;2023-02-10T00:10:08;17.58;;;6.97;;
53652;SDS011;39553;52.954;5.932;2023-02-10T00:12:37;25.48;;;8.20;;
53652;SDS011;39553;52.954;5.932;2023-02-10T00:15:03;22.92;;;7.45;;
53652;SDS011;39553;52.954;5.932;2023-02-10T00:17:30;19.00;;;7.20;;
53652;SDS011;39553;52.954;5.932;2023-02-10T00:19:56;24.17;;;7.65;;
53652;SDS011;39553;52.954;5.932;2023-02-10T00:22:21;36.58;;;7.95;;
53652;SDS011;39553;52.954;5.932;2023-02-10T00:24:47;30.92;;;7.15;;
53652;SDS011;39553;52.954;5.932;2023-02-10T00:27:13;23.00;;;7.35;;
53652;SDS011;39553;52.954;5.932;2023-02-10T00:29:38;25.08;;;8.05;;
53652;SDS011;39553;52.954;5.932;2023-02-10T00:32:04;25.55;;;7.95;;
53652;SDS011;39553;52.954;5.932;2023-02-10T00:34:30;33.58;;;6.32;;
53652;SDS011;39553;52.954;5.932;2023-02-10T00:36:56;22.33;;;6.85;;
53652;SDS011;39553;52.954;5.932;2023-02-10T00:39:24;27.05;;;6.82;;
53652;SDS011;39553;52.954;5.932;2023-02-10T00:41:50;25.02;;;6.72;;
53652;SDS011;39553;52.954;5.932;2023-02-10T00:44:16;27.20;;;6.68;;
53652;SDS011;39553;52.954;5.932;2023-02-10T00:46:41;18.80;;;6.60;;
53652;SDS011;39553;52.954;5.932;2023-02-10T00:49:09;19.05;;;6.28;;
53652;SDS011;39553;52.954;5.932;2023-02-10T00:51:36;29.52;;;6.93;;
53652;SDS011;39553;52.954;5.932;2023-02-10T00:54:02;24.15;;;5.90;;
53652;SDS011;39553;52.954;5.932;2023-02-10T00:56:27;27.27;;;6.45;;
53652;SDS011;39553;52.954;5.932;2023-02-10T00:58:53;18.83;;;6.20;;
53652;SDS011;39553;52.954;5.932;2023-02-10T01:01:19;24.17;;;5.97;;
53652;SDS011;39553;52.954;5.932;2023-02-10T01:03:45;22.45;;;6.30;;
53652;SDS011;39553;52.954;5.932;2023-02-10T01:06:12;40.20;;;7.22;;
53652;SDS011;39553;52.954;5.932;2023-02-10T01:08:38;20.23;;;6.60;;
53652;SDS011;39553;52.954;5.932;2023-02-10T01:11:05;26.42;;;6.00;;
53652;SDS011;39553;52.954;5.932;2023-02-10T01:13:32;32.25;;;6.82;;
53652;SDS011;39553;52.954;5.932;2023-02-10T01:15:59;35.30;;;7.55;;
53652;SDS011;39553;52.954;5.932;2023-02-10T01:18:26;29.98;;;7.38;;
53652;SDS011;39553;52.954;5.932;2023-02-10T01:20:52;22.40;;;7.57;;
53652;SDS011;39553;52.954;5.932;2023-02-10T01:23:17;28.73;;;6.25;;
53652;SDS011;39553;52.954;5.932;2023-02-10T01:25:43;26.67;;;7.07;;
53652;SDS011;39553;52.954;5.932;2023-02-10T01:28:09;28.90;;;7.35;;
53652;SDS011;39553;52.954;5.932;2023-02-10T01:30:35;21.98;;;6.45;;
53652;SDS011;39553;52.954;5.932;2023-02-10T01:33:01;17.35;;;6.22;;
53652;SDS011;39553;52.954;5.932;2023-02-10T01:35:28;19.27;;;6.25;;
53652;SDS011;39553;52.954;5.932;2023-02-10T01:37:54;22.90;;;7.40;;
53652;SDS011;39553;52.954;5.932;2023-02-10T01:40:20;27.77;;;7.15;;
53652;SDS011;39553;52.954;5.932;2023-02-10T01:42:47;19.05;;;7.75;;
53652;SDS011;39553;52.954;5.932;2023-02-10T01:47:49;22.23;;;6.07;;
53652;SDS011;39553;52.954;5.932;2023-02-10T01:50:17;26.73;;;8.27;;
53652;SDS011;39553;52.954;5.932;2023-02-10T01:52:44;23.48;;;7.35;;
53652;SDS011;39553;52.954;5.932;2023-02-10T01:55:12;29.38;;;8.88;;
53652;SDS011;39553;52.954;5.932;2023-02-10T01:57:42;25.95;;;7.32;;
53652;SDS011;39553;52.954;5.932;2023-02-10T02:00:09;18.52;;;7.28;;
53652;SDS011;39553;52.954;5.932;2023-02-10T02:02:35;18.42;;;7.28;;
53652;SDS011;39553;52.954;5.932;2023-02-10T02:05:04;29.05;;;7.90;;
53652;SDS011;39553;52.954;5.932;2023-02-10T02:07:35;27.00;;;7.28;;
53652;SDS011;39553;52.954;5.932;2023-02-10T02:10:02;28.70;;;8.35;;
53652;SDS011;39553;52.954;5.932;2023-02-10T02:15:44;36.83;;;8.40;;
53652;SDS011;39553;52.954;5.932;2023-02-10T02:21:14;22.13;;;8.43;;
53652;SDS011;39553;52.954;5.932;2023-02-10T02:32:28;30.20;;;8.48;;
53652;SDS011;39553;52.954;5.932;2023-02-10T02:35:02;28.58;;;8.32;;
53652;SDS011;39553;52.954;5.932;2023-02-10T02:37:36;32.22;;;8.98;;
53652;SDS011;39553;52.954;5.932;2023-02-10T02:40:05;33.15;;;10.00;;
53652;SDS011;39553;52.954;5.932;2023-02-10T02:42:32;40.42;;;9.38;;
53652;SDS011;39553;52.954;5.932;2023-02-10T02:45:01;31.73;;;9.73;;
53652;SDS011;39553;52.954;5.932;2023-02-10T02:53:15;31.98;;;9.77;;
53652;SDS011;39553;52.954;5.932;2023-02-10T02:58:20;23.60;;;10.23;;
53652;SDS011;39553;52.954;5.932;2023-02-10T03:01:02;17.45;;;8.55;;
53652;SDS011;39553;52.954;5.932;2023-02-10T03:03:32;20.92;;;8.88;;
53652;SDS011;39553;52.954;5.932;2023-02-10T03:05:59;27.15;;;9.40;;
53652;SDS011;39553;52.954;5.932;2023-02-10T03:08:26;27.38;;;8.63;;
53652;SDS011;39553;52.954;5.932;2023-02-10T03:10:54;25.00;;;8.23;;
53652;SDS011;39553;52.954;5.932;2023-02-10T03:13:20;27.98;;;9.70;;
53652;SDS011;39553;52.954;5.932;2023-02-10T03:15:45;27.75;;;8.40;;
53652;SDS011;39553;52.954;5.932;2023-02-10T03:18:11;25.33;;;8.23;;
53652;SDS011;39553;52.954;5.932;2023-02-10T03:20:38;31.75;;;8.38;;
53652;SDS011;39553;52.954;5.932;2023-02-10T03:23:04;27.02;;;7.97;;
53652;SDS011;39553;52.954;5.932;2023-02-10T03:25:29;24.52;;;9.05;;
53652;SDS011;39553;52.954;5.932;2023-02-10T03:27:55;26.67;;;8.27;;
53652;SDS011;39553;52.954;5.932;2023-02-10T03:30:21;24.88;;;8.77;;
53652;SDS011;39553;52.954;5.932;2023-02-10T03:32:47;23.92;;;8.48;;
53652;SDS011;39553;52.954;5.932;2023-02-10T03:35:13;25.33;;;7.68;;
53652;SDS011;39553;52.954;5.932;2023-02-10T03:37:39;34.67;;;8.00;;
53652;SDS011;39553;52.954;5.932;2023-02-10T03:40:06;25.52;;;8.52;;
53652;SDS011;39553;52.954;5.932;2023-02-10T03:42:32;21.90;;;7.53;;
53652;SDS011;39553;52.954;5.932;2023-02-10T03:44:57;23.20;;;7.18;;
53652;SDS011;39553;52.954;5.932;2023-02-10T03:47:23;29.67;;;7.68;;
53652;SDS011;39553;52.954;5.932;2023-02-10T03:49:49;19.60;;;7.10;;
53652;SDS011;39553;52.954;5.932;2023-02-10T03:52:16;18.67;;;6.40;;
53652;SDS011;39553;52.954;5.932;2023-02-10T03:54:41;19.75;;;6.55;;
53652;SDS011;39553;52.954;5.932;2023-02-10T03:57:07;24.42;;;8.10;;
53652;SDS011;39553;52.954;5.932;2023-02-10T03:59:33;38.55;;;7.65;;
53652;SDS011;39553;52.954;5.932;2023-02-10T04:01:58;21.77;;;7.53;;
53652;SDS011;39553;52.954;5.932;2023-02-10T04:04:24;21.58;;;8.07;;
53652;SDS011;39553;52.954;5.932;2023-02-10T04:06:50;27.80;;;7.72;;
53652;SDS011;39553;52.954;5.932;2023-02-10T04:09:16;26.25;;;7.93;;
53652;SDS011;39553;52.954;5.932;2023-02-10T04:11:42;27.15;;;7.28;;
53652;SDS011;39553;52.954;5.932;2023-02-10T04:14:07;29.45;;;7.85;;
53652;SDS011;39553;52.954;5.932;2023-02-10T04:16:34;19.30;;;7.97;;
53652;SDS011;39553;52.954;5.932;2023-02-10T04:19:00;24.80;;;8.38;;
53652;SDS011;39553;52.954;5.932;2023-02-10T04:21:25;26.30;;;7.93;;
53652;SDS011;39553;52.954;5.932;2023-02-10T04:23:52;30.63;;;7.95;;
53652;SDS011;39553;52.954;5.932;2023-02-10T04:26:18;26.83;;;7.57;;
53652;SDS011;39553;52.954;5.932;2023-02-10T04:28:43;20.45;;;8.13;;
53652;SDS011;39553;52.954;5.932;2023-02-10T04:31:09;28.10;;;8.40;;
53652;SDS011;39553;52.954;5.932;2023-02-10T04:33:35;24.33;;;7.15;;
53652;SDS011;39553;52.954;5.932;2023-02-10T04:36:02;23.35;;;8.18;;
53652;SDS011;39553;52.954;5.932;2023-02-10T04:38:29;29.13;;;7.78;;
53652;SDS011;39553;52.954;5.932;2023-02-10T04:40:55;25.08;;;10.05;;
53652;SDS011;39553;52.954;5.932;2023-02-10T04:43:21;26.00;;;8.00;;
53652;SDS011;39553;52.954;5.932;2023-02-10T04:45:47;19.83;;;8.13;;
53652;SDS011;39553;52.954;5.932;2023-02-10T04:48:13;37.17;;;7.72;;
53652;SDS011;39553;52.954;5.932;2023-02-10T04:50:39;21.00;;;7.93;;
53652;SDS011;39553;52.954;5.932;2023-02-10T04:53:06;30.13;;;9.13;;
53652;SDS011;39553;52.954;5.932;2023-02-10T04:55:32;20.27;;;9.07;;
53652;SDS011;39553;52.954;5.932;2023-02-10T04:57:58;25.10;;;8.27;;
53652;SDS011;39553;52.954;5.932;2023-02-10T05:00:25;32.88;;;9.35;;
53652;SDS011;39553;52.954;5.932;2023-02-10T05:02:51;30.73;;;9.82;;
53652;SDS011;39553;52.954;5.932;2023-02-10T05:05:16;24.88;;;8.45;;
53652;SDS011;39553;52.954;5.932;2023-02-10T05:07:43;27.90;;;8.63;;
53652;SDS011;39553;52.954;5.932;2023-02-10T05:10:09;29.75;;;8.88;;
53652;SDS011;39553;52.954;5.932;2023-02-10T05:12:35;29.40;;;9.15;;
53652;SDS011;39553;52.954;5.932;2023-02-10T05:15:01;26.80;;;10.05;;
53652;SDS011;39553;52.954;5.932;2023-02-10T05:17:26;27.33;;;9.65;;
53652;SDS011;39553;52.954;5.932;2023-02-10T05:19:52;30.23;;;10.27;;
53652;SDS011;39553;52.954;5.932;2023-02-10T05:22:18;22.83;;;8.65;;
53652;SDS011;39553;52.954;5.932;2023-02-10T05:24:43;29.60;;;10.15;;
53652;SDS011;39553;52.954;5.932;2023-02-10T05:27:09;27.70;;;8.88;;
53652;SDS011;39553;52.954;5.932;2023-02-10T05:29:35;21.50;;;8.52;;
53652;SDS011;39553;52.954;5.932;2023-02-10T05:32:01;27.02;;;9.13;;
53652;SDS011;39553;52.954;5.932;2023-02-10T05:34:27;25.48;;;9.45;;
53652;SDS011;39553;52.954;5.932;2023-02-10T05:36:53;27.55;;;10.15;;
53652;SDS011;39553;52.954;5.932;2023-02-10T05:39:18;30.73;;;9.77;;
53652;SDS011;39553;52.954;5.932;2023-02-10T05:41:55;26.98;;;9.35;;
53652;SDS011;39553;52.954;5.932;2023-02-10T05:44:22;29.90;;;9.77;;
53652;SDS011;39553;52.954;5.932;2023-02-10T05:46:49;26.38;;;10.10;;
53652;SDS011;39553;52.954;5.932;2023-02-10T05:49:15;29.08;;;9.75;;
53652;SDS011;39553;52.954;5.932;2023-02-10T05:51:41;38.47;;;9.57;;
53652;SDS011;39553;52.954;5.932;2023-02-10T05:54:07;26.05;;;9.95;;
53652;SDS011;39553;52.954;5.932;2023-02-10T05:56:34;29.98;;;9.07;;
53652;SDS011;39553;52.954;5.932;2023-02-10T05:58:59;30.98;;;10.65;;
53652;SDS011;39553;52.954;5.932;2023-02-10T06:01:25;28.48;;;10.15;;
53652;SDS011;39553;52.954;5.932;2023-02-10T06:03:51;28.30;;;10.30;;
53652;SDS011;39553;52.954;5.932;2023-02-10T06:06:17;29.95;;;9.20;;
53652;SDS011;39553;52.954;5.932;2023-02-10T06:08:43;35.58;;;10.18;;
53652;SDS011;39553;52.954;5.932;2023-02-10T06:11:09;28.77;;;9.13;;
53652;SDS011;39553;52.954;5.932;2023-02-10T06:13:34;41.83;;;10.10;;
53652;SDS011;39553;52.954;5.932;2023-02-10T06:16:01;31.60;;;10.85;;
53652;SDS011;39553;52.954;5.932;2023-02-10T06:18:27;25.00;;;10.80;;
53652;SDS011;39553;52.954;5.932;2023-02-10T06:20:53;31.90;;;10.15;;
53652;SDS011;39553;52.954;5.932;2023-02-10T06:23:19;28.85;;;9.85;;
53652;SDS011;39553;52.954;5.932;2023-02-10T06:25:45;24.95;;;9.90;;
53652;SDS011;39553;52.954;5.932;2023-02-10T06:28:12;30.65;;;11.70;;
53652;SDS011;39553;52.954;5.932;2023-02-10T06:30:39;29.40;;;10.80;;
53652;SDS011;39553;52.954;5.932;2023-02-10T06:33:08;30.90;;;10.60;;
53652;SDS011;39553;52.954;5.932;2023-02-10T06:35:34;31.02;;;11.52;;
53652;SDS011;39553;52.954;5.932;2023-02-10T06:37:59;32.63;;;10.80;;
53652;SDS011;39553;52.954;5.932;2023-02-10T06:40:25;28.15;;;10.45;;
53652;SDS011;39553;52.954;5.932;2023-02-10T06:42:51;26.55;;;10.90;;
53652;SDS011;39553;52.954;5.932;2023-02-10T06:45:17;47.47;;;13.35;;
53652;SDS011;39553;52.954;5.932;2023-02-10T06:47:42;34.72;;;11.30;;
53652;SDS011;39553;52.954;5.932;2023-02-10T06:50:08;34.97;;;11.75;;
53652;SDS011;39553;52.954;5.932;2023-02-10T06:52:37;24.58;;;11.35;;
53652;SDS011;39553;52.954;5.932;2023-02-10T06:55:07;33.13;;;13.07;;
53652;SDS011;39553;52.954;5.932;2023-02-10T06:57:33;34.67;;;12.23;;
53652;SDS011;39553;52.954;5.932;2023-02-10T07:00:01;38.47;;;12.77;;
53652;SDS011;39553;52.954;5.932;2023-02-10T07:02:32;30.42;;;12.95;;
53652;SDS011;39553;52.954;5.932;2023-02-10T07:04:58;42.20;;;14.02;;
53652;SDS011;39553;52.954;5.932;2023-02-10T07:07:24;36.13;;;16.02;;
53652;SDS011;39553;52.954;5.932;2023-02-10T07:09:50;50.10;;;14.25;;
53652;SDS011;39553;52.954;5.932;2023-02-10T07:12:18;35.08;;;14.70;;
53652;SDS011;39553;52.954;5.932;2023-02-10T07:14:45;39.38;;;14.27;;
53652;SDS011;39553;52.954;5.932;2023-02-10T07:17:10;41.78;;;14.93;;
53652;SDS011;39553;52.954;5.932;2023-02-10T07:19:36;45.25;;;14.60;;
53652;SDS011;39553;52.954;5.932;2023-02-10T07:22:02;31.98;;;14.63;;
53652;SDS011;39553;52.954;5.932;2023-02-10T07:24:32;36.47;;;15.45;;
53652;SDS011;39553;52.954;5.932;2023-02-10T07:26:58;45.53;;;14.48;;
53652;SDS011;39553;52.954;5.932;2023-02-10T07:29:25;38.25;;;16.20;;
53652;SDS011;39553;52.954;5.932;2023-02-10T07:31:51;44.50;;;15.27;;
53652;SDS011;39553;52.954;5.932;2023-02-10T07:34:17;43.60;;;16.63;;
53652;SDS011;39553;52.954;5.932;2023-02-10T07:36:46;45.95;;;17.27;;
53652;SDS011;39553;52.954;5.932;2023-02-10T07:39:18;37.63;;;16.95;;
53652;SDS011;39553;52.954;5.932;2023-02-10T07:41:48;36.50;;;16.30;;
53652;SDS011;39553;52.954;5.932;2023-02-10T07:44:14;44.85;;;17.60;;
53652;SDS011;39553;52.954;5.932;2023-02-10T07:46:40;32.83;;;16.13;;
53652;SDS011;39553;52.954;5.932;2023-02-10T07:49:06;65.82;;;21.33;;
53652;SDS011;39553;52.954;5.932;2023-02-10T07:51:32;57.70;;;20.60;;
53652;SDS011;39553;52.954;5.932;2023-02-10T07:54:01;62.10;;;25.55;;
53652;SDS011;39553;52.954;5.932;2023-02-10T07:56:27;56.33;;;23.42;;
53652;SDS011;39553;52.954;5.932;2023-02-10T07:58:52;68.13;;;25.23;;
53652;SDS011;39553;52.954;5.932;2023-02-10T08:01:18;61.88;;;23.70;;
53652;SDS011;39553;52.954;5.932;2023-02-10T08:03:44;62.53;;;24.60;;
53652;SDS011;39553;52.954;5.932;2023-02-10T08:06:10;61.03;;;23.40;;
53652;SDS011;39553;52.954;5.932;2023-02-10T08:08:36;49.65;;;20.30;;
53652;SDS011;39553;52.954;5.932;2023-02-10T08:11:05;49.92;;;19.77;;
53652;SDS011;39553;52.954;5.932;2023-02-10T08:13:31;44.58;;;17.58;;
53652;SDS011;39553;52.954;5.932;2023-02-10T08:15:58;32.90;;;16.25;;
53652;SDS011;39553;52.954;5.932;2023-02-10T08:18:24;45.25;;;15.63;;
53652;SDS011;39553;52.954;5.932;2023-02-10T08:20:49;40.35;;;14.20;;
53652;SDS011;39553;52.954;5.932;2023-02-10T08:23:16;29.27;;;13.55;;
53652;SDS011;39553;52.954;5.932;2023-02-10T08:25:42;40.50;;;14.10;;
53652;SDS011;39553;52.954;5.932;2023-02-10T08:28:08;35.75;;;13.60;;
53652;SDS011;39553;52.954;5.932;2023-02-10T08:30:34;30.83;;;13.15;;
53652;SDS011;39553;52.954;5.932;2023-02-10T08:33:00;35.05;;;13.45;;
53652;SDS011;39553;52.954;5.932;2023-02-10T08:35:26;31.23;;;12.57;;
53652;SDS011;39553;52.954;5.932;2023-02-10T08:37:53;25.85;;;14.00;;
53652;SDS011;39553;52.954;5.932;2023-02-10T08:40:18;25.30;;;12.57;;
53652;SDS011;39553;52.954;5.932;2023-02-10T08:42:46;27.00;;;13.27;;
53652;SDS011;39553;52.954;5.932;2023-02-10T08:45:11;30.98;;;12.75;;
53652;SDS011;39553;52.954;5.932;2023-02-10T08:47:37;35.70;;;14.60;;
53652;SDS011;39553;52.954;5.932;2023-02-10T08:50:03;29.95;;;13.25;;
53652;SDS011;39553;52.954;5.932;2023-02-10T08:52:29;31.33;;;14.88;;
53652;SDS011;39553;52.954;5.932;2023-02-10T08:54:55;35.17;;;13.82;;
53652;SDS011;39553;52.954;5.932;2023-02-10T08:57:21;32.67;;;16.25;;
53652;SDS011;39553;52.954;5.932;2023-02-10T08:59:47;36.75;;;15.85;;
53652;SDS011;39553;52.954;5.932;2023-02-10T09:02:13;45.65;;;15.52;;
53652;SDS011;39553;52.954;5.932;2023-02-10T09:04:39;28.55;;;13.75;;
53652;SDS011;39553;52.954;5.932;2023-02-10T09:07:06;37.58;;;15.20;;
53652;SDS011;39553;52.954;5.932;2023-02-10T09:09:35;45.67;;;17.52;;
53652;SDS011;39553;52.954;5.932;2023-02-10T09:12:03;44.80;;;17.92;;
53652;SDS011;39553;52.954;5.932;2023-02-10T09:14:29;42.72;;;17.55;;
53652;SDS011;39553;52.954;5.932;2023-02-10T09:16:55;34.08;;;17.13;;
53652;SDS011;39553;52.954;5.932;2023-02-10T09:19:21;42.22;;;18.08;;
53652;SDS011;39553;52.954;5.932;2023-02-10T09:21:49;41.28;;;16.27;;
53652;SDS011;39553;52.954;5.932;2023-02-10T09:24:15;34.35;;;14.45;;
53652;SDS011;39553;52.954;5.932;2023-02-10T09:26:42;35.88;;;13.50;;
53652;SDS011;39553;52.954;5.932;2023-02-10T09:29:08;35.30;;;13.02;;
53652;SDS011;39553;52.954;5.932;2023-02-10T09:31:35;23.92;;;11.15;;
53652;SDS011;39553;52.954;5.932;2023-02-10T09:34:01;21.85;;;9.23;;
53652;SDS011;39553;52.954;5.932;2023-02-10T09:36:27;22.38;;;11.57;;
53652;SDS011;39553;52.954;5.932;2023-02-10T09:38:54;28.58;;;10.48;;
53652;SDS011;39553;52.954;5.932;2023-02-10T09:52:46;25.33;;;10.18;;
53652;SDS011;39553;52.954;5.932;2023-02-10T09:55:39;23.27;;;9.35;;
53652;SDS011;39553;52.954;5.932;2023-02-10T09:58:35;20.45;;;9.63;;
53652;SDS011;39553;52.954;5.932;2023-02-10T10:03:45;20.55;;;9.15;;
53652;SDS011;39553;52.954;5.932;2023-02-10T10:06:26;24.15;;;9.43;;
53652;SDS011;39553;52.954;5.932;2023-02-10T10:09:11;19.58;;;11.10;;
53652;SDS011;39553;52.954;5.932;2023-02-10T10:12:07;18.63;;;7.97;;
53652;SDS011;39553;52.954;5.932;2023-02-10T10:14:40;22.08;;;8.82;;
53652;SDS011;39553;52.954;5.932;2023-02-10T10:27:51;24.83;;;8.48;;
53652;SDS011;39553;52.954;5.932;2023-02-10T10:30:25;25.20;;;8.70;;
53652;SDS011;39553;52.954;5.932;2023-02-10T10:32:59;26.00;;;9.13;;
53652;SDS011;39553;52.954;5.932;2023-02-10T10:35:33;22.60;;;8.98;;
53652;SDS011;39553;52.954;5.932;2023-02-10T10:38:24;26.35;;;8.23;;
53652;SDS011;39553;52.954;5.932;2023-02-10T10:40:58;20.70;;;8.80;;
53652;SDS011;39553;52.954;5.932;2023-02-10T10:43:32;18.92;;;7.03;;
53652;SDS011;39553;52.954;5.932;2023-02-10T10:46:17;15.05;;;6.63;;
53652;SDS011;39553;52.954;5.932;2023-02-10T10:48:50;20.67;;;6.93;;
53652;SDS011;39553;52.954;5.932;2023-02-10T10:51:16;17.98;;;7.57;;
53652;SDS011;39553;52.954;5.932;2023-02-10T10:53:52;19.25;;;6.90;;
53652;SDS011;39553;52.954;5.932;2023-02-10T10:56:37;21.92;;;7.28;;
53652;SDS011;39553;52.954;5.932;2023-02-10T11:01:41;21.15;;;8.23;;
53652;SDS011;39553;52.954;5.932;2023-02-10T11:04:19;16.98;;;7.53;;
53652;SDS011;39553;52.954;5.932;2023-02-10T11:06:50;18.85;;;8.32;;
53652;SDS011;39553;52.954;5.932;2023-02-10T11:12:01;25.35;;;8.30;;
53652;SDS011;39553;52.954;5.932;2023-02-10T11:14:35;21.60;;;8.50;;
53652;SDS011;39553;52.954;5.932;2023-02-10T11:17:26;26.77;;;9.10;;
53652;SDS011;39553;52.954;5.932;2023-02-10T11:22:38;17.88;;;7.55;;
53652;SDS011;39553;52.954;5.932;2023-02-10T11:25:25;18.48;;;6.25;;
53652;SDS011;39553;52.954;5.932;2023-02-10T11:27:59;26.80;;;9.02;;
53652;SDS011;39553;52.954;5.932;2023-02-10T11:30:27;20.77;;;7.20;;
53652;SDS011;39553;52.954;5.932;2023-02-10T11:32:59;17.48;;;7.60;;
53652;SDS011;39553;52.954;5.932;2023-02-10T11:35:26;21.30;;;7.75;;
53652;SDS011;39553;52.954;5.932;2023-02-10T11:37:54;19.63;;;7.45;;
53652;SDS011;39553;52.954;5.932;2023-02-10T11:40:24;16.98;;;7.15;;
53652;SDS011;39553;52.954;5.932;2023-02-10T11:42:55;23.80;;;7.63;;
53652;SDS011;39553;52.954;5.932;2023-02-10T11:45:24;17.45;;;8.65;;
53652;SDS011;39553;52.954;5.932;2023-02-10T11:50:59;18.70;;;7.65;;
53652;SDS011;39553;52.954;5.932;2023-02-10T11:53:46;20.17;;;7.47;;
53652;SDS011;39553;52.954;5.932;2023-02-10T11:56:14;24.63;;;8.15;;
53652;SDS011;39553;52.954;5.932;2023-02-10T12:07:44;19.88;;;6.85;;
53652;SDS011;39553;52.954;5.932;2023-02-10T12:10:55;13.50;;;5.70;;
53652;SDS011;39553;52.954;5.932;2023-02-10T12:13:46;18.00;;;6.30;;
53652;SDS011;39553;52.954;5.932;2023-02-10T12:18:53;19.85;;;7.50;;
53652;SDS011;39553;52.954;5.932;2023-02-10T12:27:42;16.10;;;7.15;;
53652;SDS011;39553;52.954;5.932;2023-02-10T12:30:19;15.85;;;6.43;;
53652;SDS011;39553;52.954;5.932;2023-02-10T12:43:53;17.85;;;5.00;;
53652;SDS011;39553;52.954;5.932;2023-02-10T12:46:45;16.10;;;5.72;;
53652;SDS011;39553;52.954;5.932;2023-02-10T12:54:43;24.83;;;6.63;;
53652;SDS011;39553;52.954;5.932;2023-02-10T12:57:21;11.88;;;5.50;;
53652;SDS011;39553;52.954;5.932;2023-02-10T13:03:19;19.98;;;7.43;;
53652;SDS011;39553;52.954;5.932;2023-02-10T13:11:40;31.65;;;14.02;;
53652;SDS011;39553;52.954;5.932;2023-02-10T13:14:17;15.93;;;6.10;;
53652;SDS011;39553;52.954;5.932;2023-02-10T13:16:51;19.35;;;6.78;;
53652;SDS011;39553;52.954;5.932;2023-02-10T13:19:23;22.48;;;6.88;;
53652;SDS011;39553;52.954;5.932;2023-02-10T13:22:09;15.05;;;6.70;;
53652;SDS011;39553;52.954;5.932;2023-02-10T13:24:58;12.80;;;6.45;;
53652;SDS011;39553;52.954;5.932;2023-02-10T13:36:20;14.45;;;6.03;;
53652;SDS011;39553;52.954;5.932;2023-02-10T13:39:26;17.20;;;5.13;;
53652;SDS011;39553;52.954;5.932;2023-02-10T13:41:51;16.38;;;5.25;;
53652;SDS011;39553;52.954;5.932;2023-02-10T13:44:29;10.05;;;3.80;;
53652;SDS011;39553;52.954;5.932;2023-02-10T13:47:08;16.13;;;5.80;;
53652;SDS011;39553;52.954;5.932;2023-02-10T13:50:00;10.48;;;5.25;;
53652;SDS011;39553;52.954;5.932;2023-02-10T13:56:01;18.70;;;6.03;;
53652;SDS011;39553;52.954;5.932;2023-02-10T13:58:30;16.63;;;6.10;;
53652;SDS011;39553;52.954;5.932;2023-02-10T14:00:58;17.73;;;4.18;;
53652;SDS011;39553;52.954;5.932;2023-02-10T14:03:26;10.48;;;4.63;;
53652;SDS011;39553;52.954;5.932;2023-02-10T14:08:33;15.75;;;4.93;;
53652;SDS011;39553;52.954;5.932;2023-02-10T14:13:39;15.18;;;6.35;;
53652;SDS011;39553;52.954;5.932;2023-02-10T14:18:40;13.13;;;5.13;;
53652;SDS011;39553;52.954;5.932;2023-02-10T14:21:12;15.35;;;5.97;;
53652;SDS011;39553;52.954;5.932;2023-02-10T14:23:48;18.52;;;5.40;;
53652;SDS011;39553;52.954;5.932;2023-02-10T14:26:31;16.90;;;6.20;;
53652;SDS011;39553;52.954;5.932;2023-02-10T14:28:59;16.63;;;5.15;;
53652;SDS011;39553;52.954;5.932;2023-02-10T14:31:27;11.43;;;5.35;;
53652;SDS011;39553;52.954;5.932;2023-02-10T14:33:58;13.15;;;5.45;;
53652;SDS011;39553;52.954;5.932;2023-02-10T14:36:27;14.02;;;5.65;;
53652;SDS011;39553;52.954;5.932;2023-02-10T14:38:57;9.23;;;5.50;;
53652;SDS011;39553;52.954;5.932;2023-02-10T14:41:28;15.60;;;5.53;;
53652;SDS011;39553;52.954;5.932;2023-02-10T14:43:56;12.27;;;5.10;;
53652;SDS011;39553;52.954;5.932;2023-02-10T14:46:23;18.40;;;6.03;;
53652;SDS011;39553;52.954;5.932;2023-02-10T14:49:08;10.05;;;5.60;;
53652;SDS011;39553;52.954;5.932;2023-02-10T14:51:43;13.82;;;6.38;;
53652;SDS011;39553;52.954;5.932;2023-02-10T14:54:10;17.88;;;6.78;;
53652;SDS011;39553;52.954;5.932;2023-02-10T14:56:39;11.40;;;5.63;;
53652;SDS011;39553;52.954;5.932;2023-02-10T14:59:04;13.68;;;6.38;;
53652;SDS011;39553;52.954;5.932;2023-02-10T15:01:33;13.32;;;6.15;;
53652;SDS011;39553;52.954;5.932;2023-02-10T15:04:00;12.70;;;5.80;;
53652;SDS011;39553;52.954;5.932;2023-02-10T15:06:30;14.63;;;5.53;;
53652;SDS011;39553;52.954;5.932;2023-02-10T15:08:58;15.70;;;5.78;;
53652;SDS011;39553;52.954;5.932;2023-02-10T15:11:30;14.48;;;5.55;;
53652;SDS011;39553;52.954;5.932;2023-02-10T15:17:20;16.75;;;6.00;;
53652;SDS011;39553;52.954;5.932;2023-02-10T15:19:59;21.08;;;6.38;;
53652;SDS011;39553;52.954;5.932;2023-02-10T15:30:52;14.07;;;4.97;;
53652;SDS011;39553;52.954;5.932;2023-02-10T15:33:20;13.45;;;6.20;;
53652;SDS011;39553;52.954;5.932;2023-02-10T15:38:31;15.07;;;7.40;;
53652;SDS011;39553;52.954;5.932;2023-02-10T15:40:57;18.02;;;8.18;;
53652;SDS011;39553;52.954;5.932;2023-02-10T15:43:27;15.05;;;6.18;;
53652;SDS011;39553;52.954;5.932;2023-02-10T15:46:06;13.15;;;6.72;;
53652;SDS011;39553;52.954;5.932;2023-02-10T15:48:40;20.98;;;6.50;;
53652;SDS011;39553;52.954;5.932;2023-02-10T15:51:05;19.30;;;7.00;;
53652;SDS011;39553;52.954;5.932;2023-02-10T15:53:45;14.10;;;6.47;;
53652;SDS011;39553;52.954;5.932;2023-02-10T15:56:11;25.20;;;6.93;;
53652;SDS011;39553;52.954;5.932;2023-02-10T15:58:37;17.92;;;7.22;;
53652;SDS011;39553;52.954;5.932;2023-02-10T16:01:03;15.63;;;6.38;;
53652;SDS011;39553;52.954;5.932;2023-02-10T16:03:29;13.63;;;6.07;;
53652;SDS011;39553;52.954;5.932;2023-02-10T16:05:54;13.57;;;5.60;;
53652;SDS011;39553;52.954;5.932;2023-02-10T16:08:26;17.88;;;6.65;;
53652;SDS011;39553;52.954;5.932;2023-02-10T16:10:53;13.23;;;5.05;;
53652;SDS011;39553;52.954;5.932;2023-02-10T16:13:19;17.63;;;5.72;;
53652;SDS011;39553;52.954;5.932;2023-02-10T16:15:46;16.23;;;6.35;;
53652;SDS011;39553;52.954;5.932;2023-02-10T16:18:21;19.85;;;6.65;;
53652;SDS011;39553;52.954;5.932;2023-02-10T16:20:48;17.95;;;7.03;;
53652;SDS011;39553;52.954;5.932;2023-02-10T16:23:16;12.45;;;5.38;;
53652;SDS011;39553;52.954;5.932;2023-02-10T16:25:44;18.75;;;6.30;;
53652;SDS011;39553;52.954;5.932;2023-02-10T16:28:12;14.40;;;4.75;;
53652;SDS011;39553;52.954;5.932;2023-02-10T16:30:40;19.73;;;9.20;;
53652;SDS011;39553;52.954;5.932;2023-02-10T16:33:07;15.43;;;6.03;;
53652;SDS011;39553;52.954;5.932;2023-02-10T16:35:33;16.65;;;6.53;;
53652;SDS011;39553;52.954;5.932;2023-02-10T16:37:59;18.17;;;9.57;;
53652;SDS011;39553;52.954;5.932;2023-02-10T16:42:52;16.25;;;6.70;;
53652;SDS011;39553;52.954;5.932;2023-02-10T16:45:23;12.02;;;5.53;;
53652;SDS011;39553;52.954;5.932;2023-02-10T16:47:50;15.68;;;6.20;;
53652;SDS011;39553;52.954;5.932;2023-02-10T16:50:22;16.13;;;6.47;;
53652;SDS011;39553;52.954;5.932;2023-02-10T16:52:57;14.82;;;6.43;;
53652;SDS011;39553;52.954;5.932;2023-02-10T16:55:23;13.55;;;5.53;;
53652;SDS011;39553;52.954;5.932;2023-02-10T16:57:49;19.13;;;7.50;;
53652;SDS011;39553;52.954;5.932;2023-02-10T17:00:16;19.75;;;8.32;;
53652;SDS011;39553;52.954;5.932;2023-02-10T17:02:44;27.40;;;6.60;;